Time;durP1;ratioP1;P1;durP2;ratioP2;P2;SDS_P1;SDS_P2;PMS_P1;PMS_P2;Temp;Humidity;BMP_temperature;BMP_pressure;BME280_temperature;BME280_humidity;BME280_pressure;Samples;Min_cycle;Max_cycle;Signal;HPM_P1;HPM_P2
2023/09/02 00:00:10;;;;;;;26.27;23.08;;;16.50;99.90;;;;;;5075028;28;20029;-57
2023/09/02 00:02:36;;;;;;;25.10;22.50;;;16.40;99.90;;;;;;5074707;28;20115;-57
2023/09/02 00:05:01;;;;;;;24.98;22.45;;;16.50;99.90;;;;;;5074813;28;20181;-57
2023/09/02 00:07:27;;;;;;;27.77;23.98;;;16.40;99.90;;;;;;5074712;28;20440;-57
2023/09/02 00:09:53;;;;;;;25.25;22.75;;;16.40;99.90;;;;;;5073284;28;20040;-60
2023/09/02 00:12:18;;;;;;;26.92;23.83;;;16.40;99.90;;;;;;5074272;28;20036;-58
2023/09/02 00:14:44;;;;;;;26.83;23.80;;;16.30;99.90;;;;;;5073787;28;20048;-59
2023/09/02 00:17:11;;;;;;;28.23;23.20;;;16.30;99.90;;;;;;5073488;28;20029;-59
2023/09/02 00:19:37;;;;;;;25.67;22.90;;;16.30;99.90;;;;;;5073370;28;20098;-57
2023/09/02 00:22:03;;;;;;;26.42;23.48;;;16.30;99.90;;;;;;5074315;28;20041;-59
2023/09/02 00:24:29;;;;;;;25.65;23.02;;;16.20;99.90;;;;;;5074046;28;20045;-54
2023/09/02 00:26:54;;;;;;;26.52;23.70;;;16.30;99.90;;;;;;5074431;28;20124;-57
2023/09/02 00:29:20;;;;;;;25.48;22.85;;;16.40;99.90;;;;;;5072945;28;20487;-56
2023/09/02 00:31:46;;;;;;;24.33;21.83;;;16.30;99.90;;;;;;5074478;28;20036;-59
2023/09/02 00:34:11;;;;;;;26.15;23.23;;;16.30;99.90;;;;;;5074207;28;20566;-60
2023/09/02 00:36:37;;;;;;;27.48;22.92;;;16.40;99.90;;;;;;5074446;28;20075;-58
2023/09/02 00:39:04;;;;;;;26.73;23.92;;;16.20;99.90;;;;;;5074117;28;20037;-61
2023/09/02 00:41:43;;;;;;;27.70;24.75;;;16.40;99.90;;;;;;5072888;28;20064;-56
2023/09/02 00:44:09;;;;;;;25.90;23.10;;;16.40;99.90;;;;;;5074140;28;20048;-59
2023/09/02 00:46:34;;;;;;;25.38;22.50;;;16.40;99.90;;;;;;5073882;28;20192;-62
2023/09/02 00:49:00;;;;;;;26.05;23.25;;;16.30;99.90;;;;;;5073757;28;20044;-56
2023/09/02 00:51:27;;;;;;;25.33;22.67;;;16.40;99.90;;;;;;5073486;28;20124;-55
2023/09/02 00:53:53;;;;;;;26.83;23.98;;;16.30;99.90;;;;;;5071011;28;20036;-57
2023/09/02 00:56:19;;;;;;;26.73;23.40;;;16.30;99.90;;;;;;5072735;28;20052;-61
2023/09/02 00:58:45;;;;;;;27.63;24.10;;;16.40;99.90;;;;;;5072928;28;20460;-55
2023/09/02 01:01:11;;;;;;;26.05;23.45;;;16.30;99.90;;;;;;5073745;28;20037;-62
2023/09/02 01:03:39;;;;;;;25.63;23.02;;;16.30;99.90;;;;;;5073932;28;20040;-59
2023/09/02 01:06:07;;;;;;;28.30;25.23;;;16.40;99.90;;;;;;5073683;28;20036;-57
2023/09/02 01:08:33;;;;;;;26.45;23.45;;;16.20;99.90;;;;;;5072783;28;20039;-57
2023/09/02 01:10:59;;;;;;;26.33;23.67;;;16.40;99.90;;;;;;5073367;28;20384;-58
2023/09/02 01:13:27;;;;;;;27.20;24.23;;;16.30;99.90;;;;;;5073743;28;20440;-61
2023/09/02 01:15:55;;;;;;;27.48;24.65;;;16.40;99.90;;;;;;5073369;28;20499;-55
2023/09/02 01:18:22;;;;;;;26.45;23.65;;;16.20;99.90;;;;;;5073478;28;20050;-58
2023/09/02 01:21:12;;;;;;;26.55;23.65;;;16.20;99.90;;;;;;5073380;28;20033;-57
2023/09/02 01:23:49;;;;;;;27.90;24.83;;;16.20;99.90;;;;;;5072378;28;20033;-56
2023/09/02 01:26:42;;;;;;;27.00;24.20;;;16.20;99.90;;;;;;5073358;28;20037;-57
2023/09/02 01:29:11;;;;;;;26.80;24.00;;;16.30;99.90;;;;;;5071264;28;20040;-59
2023/09/02 01:31:38;;;;;;;27.42;24.52;;;16.10;99.90;;;;;;5073167;28;20063;-58
2023/09/02 01:34:07;;;;;;;27.20;24.38;;;16.20;99.90;;;;;;5073338;28;20064;-56
2023/09/02 01:36:34;;;;;;;26.65;23.88;;;16.20;99.90;;;;;;5071707;28;20036;-59
2023/09/02 01:39:00;;;;;;;26.25;23.40;;;16.20;99.90;;;;;;5073268;28;20037;-57
2023/09/02 01:41:28;;;;;;;26.92;24.05;;;16.10;99.90;;;;;;5072812;28;20547;-56
2023/09/02 01:43:55;;;;;;;27.98;25.00;;;16.30;99.90;;;;;;5071582;28;20118;-57
2023/09/02 01:46:21;;;;;;;27.67;24.77;;;16.30;99.90;;;;;;5072579;28;20074;-57
2023/09/02 01:48:47;;;;;;;26.58;23.98;;;16.20;99.90;;;;;;5071654;28;20072;-61
2023/09/02 01:51:13;;;;;;;26.63;23.92;;;16.30;99.90;;;;;;5072674;28;20075;-57
2023/09/02 01:53:40;;;;;;;28.38;25.48;;;16.20;99.90;;;;;;5071304;28;20082;-60
2023/09/02 01:56:05;;;;;;;28.70;25.80;;;16.40;99.90;;;;;;5072806;28;20123;-58
2023/09/02 01:58:31;;;;;;;28.80;25.77;;;16.20;99.90;;;;;;5072539;28;20040;-56
2023/09/02 02:00:58;;;;;;;29.60;26.42;;;16.10;99.90;;;;;;5071325;28;20043;-55
2023/09/02 02:03:29;;;;;;;29.27;26.13;;;16.10;99.90;;;;;;5072604;28;20112;-61
2023/09/02 02:05:58;;;;;;;29.58;26.67;;;16.20;99.90;;;;;;5070325;28;20067;-54
2023/09/02 02:08:37;;;;;;;28.38;25.58;;;16.20;99.90;;;;;;5071573;28;20041;-58
2023/09/02 02:11:05;;;;;;;29.67;26.58;;;16.20;99.90;;;;;;5072541;28;20495;-56
2023/09/02 02:13:30;;;;;;;29.45;26.42;;;16.20;99.90;;;;;;5072422;28;20483;-58
2023/09/02 02:15:56;;;;;;;29.45;26.40;;;16.20;99.90;;;;;;5072021;28;20048;-56
2023/09/02 02:18:22;;;;;;;30.52;27.27;;;16.00;99.90;;;;;;5072323;28;20043;-58
2023/09/02 02:21:00;;;;;;;28.75;25.65;;;16.00;99.90;;;;;;5071880;28;20081;-56
2023/09/02 02:23:25;;;;;;;30.13;26.90;;;16.10;99.90;;;;;;5069609;28;20045;-56
2023/09/02 02:25:51;;;;;;;28.30;25.40;;;16.10;99.90;;;;;;5071893;28;20117;-57
2023/09/02 02:28:18;;;;;;;27.92;24.98;;;16.10;99.90;;;;;;5071431;28;20036;-56
2023/09/02 02:30:43;;;;;;;29.40;26.40;;;16.10;99.90;;;;;;5072065;28;20033;-55
2023/09/02 02:33:09;;;;;;;30.45;27.23;;;15.90;99.90;;;;;;5072205;28;20170;-60
2023/09/02 02:35:35;;;;;;;31.10;27.88;;;16.10;99.90;;;;;;5071813;28;20450;-60
2023/09/02 02:38:00;;;;;;;31.92;28.58;;;16.10;99.90;;;;;;5071688;28;20059;-60
2023/09/02 02:40:27;;;;;;;33.78;28.83;;;15.90;99.90;;;;;;5071696;28;20111;-56
2023/09/02 02:42:53;;;;;;;32.10;28.77;;;15.90;99.90;;;;;;5070528;28;20472;-57
2023/09/02 02:45:19;;;;;;;33.05;29.52;;;16.10;99.90;;;;;;5071886;28;20037;-59
2023/09/02 02:47:45;;;;;;;31.85;28.40;;;16.10;99.90;;;;;;5071534;28;20380;-55
2023/09/02 02:50:11;;;;;;;33.67;30.02;;;16.00;99.90;;;;;;5071813;28;20051;-57
2023/09/02 02:52:37;;;;;;;34.13;29.88;;;16.00;99.90;;;;;;5071806;28;20044;-59
2023/09/02 02:55:03;;;;;;;37.40;31.77;;;16.10;99.90;;;;;;5071431;28;20086;-58
2023/09/02 02:57:29;;;;;;;33.15;29.83;;;16.00;99.90;;;;;;5071472;28;20040;-55
2023/09/02 02:59:55;;;;;;;33.53;30.10;;;16.00;99.90;;;;;;5069790;28;20037;-57
2023/09/02 03:02:21;;;;;;;33.28;29.63;;;16.10;99.90;;;;;;5071839;28;20040;-59
2023/09/02 03:04:48;;;;;;;32.67;29.27;;;16.10;99.90;;;;;;5071367;28;20036;-55
2023/09/02 03:07:14;;;;;;;31.73;28.42;;;16.00;99.90;;;;;;5071614;28;20510;-60
2023/09/02 03:09:40;;;;;;;32.30;29.00;;;16.20;99.90;;;;;;5071538;28;20786;-59
2023/09/02 03:12:06;;;;;;;34.47;30.67;;;16.00;99.90;;;;;;5070787;28;20040;-58
2023/09/02 03:14:32;;;;;;;33.67;30.08;;;16.20;99.90;;;;;;5070984;28;20383;-57
2023/09/02 03:16:58;;;;;;;33.65;29.13;;;16.10;99.90;;;;;;5070075;28;20052;-58
2023/09/02 03:19:25;;;;;;;34.17;30.35;;;16.10;99.90;;;;;;5053292;28;20102;-62
2023/09/02 03:21:51;;;;;;;34.03;30.33;;;15.90;99.90;;;;;;5071035;28;20033;-56
2023/09/02 03:24:16;;;;;;;35.55;31.88;;;15.90;99.90;;;;;;5070894;28;20103;-58
2023/09/02 03:26:42;;;;;;;36.45;32.55;;;16.10;99.90;;;;;;5070885;28;20045;-56
2023/09/02 03:29:08;;;;;;;35.45;31.55;;;15.90;99.90;;;;;;5070883;28;20068;-56
2023/09/02 03:31:33;;;;;;;35.83;32.15;;;15.90;99.90;;;;;;5071341;28;20032;-56
2023/09/02 03:33:59;;;;;;;38.83;32.40;;;15.90;99.90;;;;;;5070828;28;20048;-58
2023/09/02 03:36:25;;;;;;;34.97;31.23;;;16.10;99.90;;;;;;5071155;28;20074;-62
2023/09/02 03:38:51;;;;;;;37.72;33.72;;;16.10;99.90;;;;;;5071018;28;20091;-59
2023/09/02 03:41:20;;;;;;;38.00;32.70;;;15.80;99.90;;;;;;5069753;28;20054;-55
2023/09/02 03:43:46;;;;;;;37.70;33.72;;;16.10;99.90;;;;;;5071490;28;20557;-60
2023/09/02 03:46:13;;;;;;;37.13;33.22;;;16.00;99.90;;;;;;5051529;28;20036;-58
2023/09/02 03:48:39;;;;;;;36.80;32.58;;;16.10;99.90;;;;;;5070854;28;20040;-58
2023/09/02 03:51:12;;;;;;;37.17;33.28;;;16.10;99.90;;;;;;5070964;28;20046;-58
2023/09/02 03:53:39;;;;;;;37.58;32.85;;;15.90;99.90;;;;;;5069571;28;20040;-55
2023/09/02 03:56:05;;;;;;;38.78;34.55;;;16.10;99.90;;;;;;5070949;28;20178;-54
2023/09/02 03:58:31;;;;;;;40.28;34.67;;;16.00;99.90;;;;;;5070657;28;20614;-58
2023/09/02 04:00:57;;;;;;;39.33;35.13;;;16.00;99.90;;;;;;5069476;28;20064;-58
2023/09/02 04:03:24;;;;;;;38.65;34.50;;;15.90;99.90;;;;;;5071125;28;20490;-56
2023/09/02 04:05:50;;;;;;;38.33;34.22;;;15.90;99.90;;;;;;5069617;28;20388;-59
2023/09/02 04:08:18;;;;;;;38.28;34.10;;;15.90;99.90;;;;;;5071080;28;20480;-56
2023/09/02 04:10:44;;;;;;;38.15;34.15;;;15.90;99.90;;;;;;5071226;28;20545;-60
2023/09/02 04:13:10;;;;;;;38.45;34.15;;;15.90;99.90;;;;;;5070666;28;20044;-56
2023/09/02 04:15:35;;;;;;;39.42;35.10;;;16.10;99.90;;;;;;5070782;28;20044;-57
2023/09/02 04:18:01;;;;;;;40.25;33.17;;;15.90;99.90;;;;;;5070508;28;20032;-56
2023/09/02 04:20:27;;;;;;;38.55;34.40;;;16.00;99.90;;;;;;5070838;28;20046;-58
2023/09/02 04:22:52;;;;;;;41.72;34.03;;;15.90;99.90;;;;;;5069890;28;20063;-61
2023/09/02 04:25:19;;;;;;;37.70;33.60;;;16.00;99.90;;;;;;5069781;28;21165;-55
2023/09/02 04:27:46;;;;;;;38.83;34.58;;;15.90;99.90;;;;;;5069785;28;20048;-58
2023/09/02 04:30:12;;;;;;;40.05;35.58;;;16.00;99.90;;;;;;5069412;28;20086;-56
2023/09/02 04:32:38;;;;;;;43.38;37.72;;;15.80;99.90;;;;;;5071707;28;20115;-56
2023/09/02 04:35:05;;;;;;;46.97;38.17;;;16.00;99.90;;;;;;5074275;28;20167;-62
2023/09/02 04:37:31;;;;;;;39.22;34.97;;;16.00;99.90;;;;;;5074291;28;20133;-60
2023/09/02 04:39:56;;;;;;;39.78;35.40;;;15.90;99.90;;;;;;5073962;28;20045;-56
2023/09/02 04:42:22;;;;;;;42.05;36.92;;;15.90;99.90;;;;;;5074354;28;20424;-60
2023/09/02 04:44:50;;;;;;;41.88;35.88;;;15.80;99.90;;;;;;5074050;28;20040;-54
2023/09/02 04:47:16;;;;;;;43.53;38.67;;;16.00;99.90;;;;;;5072782;28;20037;-59
2023/09/02 04:49:42;;;;;;;44.05;37.70;;;15.80;99.90;;;;;;5074122;28;20048;-57
2023/09/02 04:52:08;;;;;;;41.85;35.75;;;15.90;99.90;;;;;;5073796;28;20055;-57
2023/09/02 04:54:33;;;;;;;44.22;36.92;;;15.90;99.90;;;;;;5073843;28;20036;-59
2023/09/02 04:56:59;;;;;;;46.30;38.15;;;15.90;99.90;;;;;;5073624;28;20115;-59
2023/09/02 04:59:26;;;;;;;40.90;36.40;;;15.80;99.90;;;;;;5055216;28;20048;-60
2023/09/02 05:01:51;;;;;;;41.40;36.25;;;16.00;99.90;;;;;;5072348;28;20044;-59
2023/09/02 05:04:17;;;;;;;41.30;36.70;;;15.90;99.90;;;;;;5073726;28;20033;-58
2023/09/02 05:06:43;;;;;;;40.13;35.88;;;15.90;99.90;;;;;;5073662;28;20040;-58
2023/09/02 05:09:08;;;;;;;42.38;37.40;;;16.00;99.90;;;;;;5072422;28;20072;-57
2023/09/02 05:11:34;;;;;;;47.28;37.03;;;15.90;99.90;;;;;;5073727;28;20050;-57
2023/09/02 05:14:00;;;;;;;40.40;36.00;;;16.00;99.90;;;;;;5073847;28;20537;-57
2023/09/02 05:16:25;;;;;;;42.63;37.17;;;16.00;99.90;;;;;;5071739;28;20040;-62
2023/09/02 05:18:51;;;;;;;44.10;38.00;;;15.80;99.90;;;;;;5073705;28;20506;-56
2023/09/02 05:21:18;;;;;;;42.28;37.45;;;15.80;99.90;;;;;;5073624;28;20453;-58
2023/09/02 05:23:44;;;;;;;45.33;38.10;;;16.00;99.90;;;;;;5073185;28;20052;-59
2023/09/02 05:26:09;;;;;;;44.92;37.50;;;16.00;99.90;;;;;;5071891;28;20052;-58
2023/09/02 05:28:35;;;;;;;46.60;38.50;;;15.80;99.90;;;;;;5072862;28;20032;-60
2023/09/02 05:31:01;;;;;;;46.25;38.25;;;15.90;99.90;;;;;;5073165;28;20036;-56
2023/09/02 05:33:26;;;;;;;43.75;36.72;;;15.80;99.90;;;;;;5073494;28;20040;-59
2023/09/02 05:35:53;;;;;;;42.60;36.08;;;16.00;99.90;;;;;;5073213;28;20479;-56
2023/09/02 05:38:19;;;;;;;42.72;37.20;;;16.10;99.90;;;;;;5073266;28;20388;-61
2023/09/02 05:40:44;;;;;;;42.85;36.92;;;15.80;99.90;;;;;;5073045;28;20036;-57
2023/09/02 05:43:10;;;;;;;58.70;42.58;;;15.90;99.90;;;;;;5072538;28;20612;-59
2023/09/02 05:45:36;;;;;;;53.38;41.58;;;15.80;99.90;;;;;;5072604;28;20476;-59
2023/09/02 05:48:02;;;;;;;47.05;37.80;;;16.10;99.90;;;;;;5071605;28;20087;-59
2023/09/02 05:50:28;;;;;;;50.78;39.72;;;15.80;99.90;;;;;;5073021;28;20039;-56
2023/09/02 05:52:53;;;;;;;51.15;40.15;;;15.80;99.90;;;;;;5072772;28;20399;-60
2023/09/02 05:55:19;;;;;;;48.42;40.10;;;15.80;99.90;;;;;;5072828;28;20100;-54
2023/09/02 05:57:45;;;;;;;43.38;37.63;;;15.90;99.90;;;;;;5072890;28;20070;-59
2023/09/02 06:00:11;;;;;;;49.92;39.95;;;16.00;99.90;;;;;;5071416;28;20040;-60
2023/09/02 06:02:37;;;;;;;50.70;39.88;;;16.00;99.90;;;;;;5071060;28;20049;-55
2023/09/02 06:05:03;;;;;;;46.72;40.08;;;15.90;99.90;;;;;;5072460;28;20044;-59
2023/09/02 06:07:29;;;;;;;46.05;38.65;;;15.80;99.90;;;;;;5071071;28;20039;-61
2023/09/02 06:09:54;;;;;;;50.70;40.95;;;15.80;99.90;;;;;;5071197;28;20045;-59
2023/09/02 06:12:20;;;;;;;47.88;40.90;;;16.00;99.90;;;;;;5071135;28;20036;-56
2023/09/02 06:14:46;;;;;;;52.17;42.58;;;16.00;99.90;;;;;;5072394;28;20072;-61
2023/09/02 06:17:11;;;;;;;49.83;40.85;;;16.10;99.90;;;;;;5070852;28;20972;-59
2023/09/02 06:19:37;;;;;;;45.85;39.58;;;15.80;99.90;;;;;;5072180;28;20043;-59
2023/09/02 06:22:03;;;;;;;55.92;41.38;;;16.10;99.90;;;;;;5071103;28;20036;-59
2023/09/02 06:24:29;;;;;;;55.40;43.08;;;15.90;99.90;;;;;;5072095;28;20059;-54
2023/09/02 06:26:54;;;;;;;54.05;41.58;;;16.10;99.90;;;;;;5071871;28;20127;-59
2023/09/02 06:29:20;;;;;;;54.15;40.88;;;16.10;99.90;;;;;;5071381;28;20048;-53
2023/09/02 06:31:46;;;;;;;48.60;39.53;;;16.20;99.90;;;;;;5071551;28;20123;-53
2023/09/02 06:34:12;;;;;;;57.40;41.97;;;16.30;99.90;;;;;;5071556;28;20040;-55
2023/09/02 06:36:39;;;;;;;48.85;38.78;;;16.10;99.90;;;;;;5071451;28;20398;-54
2023/09/02 06:39:05;;;;;;;52.33;39.83;;;16.20;99.90;;;;;;5071569;28;20494;-56
2023/09/02 06:41:30;;;;;;;53.08;40.65;;;16.10;99.90;;;;;;5071257;28;20029;-55
2023/09/02 06:43:56;;;;;;;64.03;41.72;;;16.00;99.90;;;;;;5070988;28;20124;-57
2023/09/02 06:46:25;;;;;;;54.92;38.80;;;16.00;99.90;;;;;;5071476;28;20041;-55
2023/09/02 06:48:50;;;;;;;55.45;39.13;;;16.10;99.90;;;;;;5070130;28;20379;-59
2023/09/02 06:51:16;;;;;;;54.25;40.40;;;16.20;99.90;;;;;;5071512;28;20040;-62
2023/09/02 06:53:43;;;;;;;48.45;37.90;;;16.20;99.90;;;;;;5069926;28;20499;-57
2023/09/02 06:56:11;;;;;;;52.47;39.42;;;16.10;99.90;;;;;;5071165;28;20080;-54
2023/09/02 06:58:39;;;;;;;50.83;38.47;;;16.30;99.90;;;;;;5070414;28;20044;-54
2023/09/02 07:01:05;;;;;;;53.90;39.45;;;16.30;99.90;;;;;;5071347;28;20056;-57
2023/09/02 07:03:31;;;;;;;48.65;38.17;;;16.30;99.90;;;;;;5071065;28;20079;-57
2023/09/02 07:06:08;;;;;;;50.95;38.83;;;16.30;99.90;;;;;;5071348;28;20691;-58
2023/09/02 07:08:34;;;;;;;59.83;41.22;;;16.10;99.90;;;;;;5071049;28;20040;-60
2023/09/02 07:11:00;;;;;;;68.15;43.85;;;16.30;99.90;;;;;;5071162;28;20370;-57
2023/09/02 07:13:25;;;;;;;51.47;39.95;;;16.20;99.90;;;;;;5070654;28;20033;-54
2023/09/02 07:16:02;;;;;;;52.92;39.08;;;16.50;99.90;;;;;;5071216;28;20094;-58
2023/09/02 07:18:28;;;;;;;60.58;40.50;;;16.60;99.90;;;;;;5070419;28;20058;-59
2023/09/02 07:21:00;;;;;;;62.33;41.20;;;16.40;99.90;;;;;;5071184;28;20558;-54
2023/09/02 07:23:27;;;;;;;52.58;39.13;;;16.60;99.90;;;;;;5070908;28;20075;-52
2023/09/02 07:25:53;;;;;;;55.85;40.60;;;16.70;99.90;;;;;;5070734;28;20048;-55
2023/09/02 07:28:19;;;;;;;51.58;37.22;;;16.60;99.90;;;;;;5068806;28;20049;-60
2023/09/02 07:30:44;;;;;;;47.70;37.20;;;16.80;99.90;;;;;;5071019;28;20048;-55
2023/09/02 07:33:10;;;;;;;59.42;41.05;;;16.70;99.90;;;;;;5070496;28;20051;-58
2023/09/02 07:35:36;;;;;;;53.20;39.40;;;16.70;99.90;;;;;;5071020;28;20037;-58
2023/09/02 07:38:05;;;;;;;45.20;36.05;;;16.60;99.90;;;;;;5068990;28;20123;-54
2023/09/02 07:40:31;;;;;;;47.05;36.88;;;16.60;99.90;;;;;;5070769;28;20445;-54
2023/09/02 07:43:02;;;;;;;46.83;37.22;;;16.60;99.90;;;;;;5070673;28;20036;-54
2023/09/02 07:45:29;;;;;;;52.47;39.50;;;17.00;99.90;;;;;;5069750;28;20051;-58
2023/09/02 07:47:55;;;;;;;52.72;38.13;;;17.10;99.90;;;;;;5070446;28;20059;-67
2023/09/02 07:50:20;;;;;;;46.15;36.00;;;17.10;99.90;;;;;;5071024;28;20028;-54
2023/09/02 07:52:47;;;;;;;44.80;34.75;;;16.80;99.90;;;;;;5070247;28;20445;-58
2023/09/02 07:55:13;;;;;;;45.30;35.28;;;17.10;99.90;;;;;;5070839;28;20040;-61
2023/09/02 07:57:39;;;;;;;43.35;33.90;;;17.00;99.90;;;;;;5069204;28;20090;-53
2023/09/02 08:00:07;;;;;;;43.53;32.60;;;16.90;99.90;;;;;;5070161;28;20430;-54
2023/09/02 08:02:32;;;;;;;45.25;34.22;;;17.30;99.90;;;;;;5070297;28;20417;-54
2023/09/02 08:04:58;;;;;;;45.67;33.47;;;17.10;99.90;;;;;;5070537;28;20112;-52
2023/09/02 08:07:24;;;;;;;45.67;33.00;;;17.30;99.90;;;;;;5070523;28;20055;-56
2023/09/02 08:09:50;;;;;;;44.40;33.50;;;17.20;99.90;;;;;;5074214;28;20148;-57
2023/09/02 08:12:16;;;;;;;47.17;34.35;;;17.30;99.90;;;;;;5074251;28;20040;-53
2023/09/02 08:14:41;;;;;;;41.35;31.83;;;17.40;99.90;;;;;;5072863;28;20052;-58
2023/09/02 08:17:07;;;;;;;41.55;31.65;;;17.20;99.90;;;;;;5074047;28;20134;-58
2023/09/02 08:19:33;;;;;;;41.50;32.15;;;17.50;99.90;;;;;;5073906;28;20040;-58
2023/09/02 08:21:59;;;;;;;44.97;34.10;;;17.20;99.90;;;;;;5073826;28;20123;-58
2023/09/02 08:24:25;;;;;;;41.47;31.65;;;17.50;99.90;;;;;;5073765;28;20029;-54
2023/09/02 08:26:51;;;;;;;41.58;33.53;;;17.50;99.90;;;;;;5073341;28;20052;-57
2023/09/02 08:29:16;;;;;;;46.42;34.25;;;17.50;99.90;;;;;;5073673;28;20040;-54
2023/09/02 08:31:42;;;;;;;43.28;32.42;;;17.40;99.90;;;;;;5073529;28;20105;-58
2023/09/02 08:34:08;;;;;;;42.67;32.17;;;17.30;99.90;;;;;;5074130;28;20052;-60
2023/09/02 08:36:34;;;;;;;43.17;33.40;;;17.10;99.90;;;;;;5073620;28;20112;-57
2023/09/02 08:38:59;;;;;;;43.22;32.78;;;17.20;99.90;;;;;;5072328;28;20040;-57
2023/09/02 08:41:29;;;;;;;42.95;33.55;;;17.50;99.90;;;;;;5073374;28;20082;-55
2023/09/02 08:43:56;;;;;;;37.47;30.65;;;17.20;99.90;;;;;;5073427;28;20029;-56
2023/09/02 08:46:26;;;;;;;38.70;32.40;;;17.50;99.90;;;;;;5073492;28;20476;-55
2023/09/02 08:48:55;;;;;;;44.40;32.88;;;17.20;99.90;;;;;;5073755;28;20123;-55
2023/09/02 08:51:25;;;;;;;39.63;30.95;;;17.40;99.90;;;;;;5073489;28;20394;-59
2023/09/02 08:53:54;;;;;;;42.22;31.52;;;17.50;99.90;;;;;;5073737;28;20515;-59
2023/09/02 08:56:22;;;;;;;42.88;32.97;;;17.50;99.90;;;;;;5073475;28;20495;-58
2023/09/02 08:58:49;;;;;;;41.80;32.63;;;17.30;99.90;;;;;;5073047;28;20490;-58
2023/09/02 09:01:18;;;;;;;43.15;34.10;;;17.60;99.90;;;;;;5073009;28;20127;-58
2023/09/02 09:03:49;;;;;;;39.50;33.10;;;17.70;99.90;;;;;;5073489;28;20040;-54
2023/09/02 09:06:18;;;;;;;43.75;34.33;;;17.50;99.90;;;;;;5073009;28;20029;-55
2023/09/02 09:08:46;;;;;;;40.90;33.00;;;17.80;99.90;;;;;;5072978;28;20044;-59
2023/09/02 09:11:15;;;;;;;38.42;31.70;;;17.90;99.90;;;;;;5073144;28;20072;-57
2023/09/02 09:13:45;;;;;;;42.13;25.65;;;18.00;99.90;;;;;;5073313;28;20045;-58
2023/09/02 09:16:16;;;;;;;35.38;28.70;;;17.70;99.90;;;;;;5073696;28;20036;-58
2023/09/02 09:18:42;;;;;;;34.83;28.35;;;17.80;99.90;;;;;;5073031;28;20131;-59
2023/09/02 09:21:08;;;;;;;33.05;26.20;;;18.10;99.90;;;;;;5073293;28;20170;-61
2023/09/02 09:23:35;;;;;;;33.05;27.38;;;18.20;99.90;;;;;;5073407;28;20031;-58
2023/09/02 09:26:03;;;;;;;32.45;27.17;;;18.00;99.90;;;;;;5074339;28;20044;-61
2023/09/02 09:28:58;;;;;;;34.25;26.92;;;18.20;99.90;;;;;;5071468;28;20045;-56
2023/09/02 09:31:24;;;;;;;;;;;18.30;99.90;;;;;;5072729;28;20552;-56
2023/09/02 09:34:00;;;;;;;30.92;25.23;;;18.40;99.90;;;;;;5072881;28;19967;-60
2023/09/02 09:36:27;;;;;;;28.42;23.90;;;18.60;99.90;;;;;;5073203;28;20495;-61
2023/09/02 09:39:04;;;;;;;29.55;23.83;;;18.50;99.90;;;;;;5072745;28;20044;-58
2023/09/02 09:41:31;;;;;;;27.65;21.85;;;18.70;99.90;;;;;;5072850;28;20052;-56
2023/09/02 09:44:16;;;;;;;26.48;21.42;;;18.60;99.90;;;;;;5073263;28;20032;-58
2023/09/02 09:46:52;;;;;;;28.67;22.80;;;18.60;99.90;;;;;;5072936;28;20442;-56
2023/09/02 09:49:29;;;;;;;24.13;20.10;;;18.90;99.90;;;;;;5073361;28;20048;-59
2023/09/02 09:52:01;;;;;;;24.42;18.85;;;18.70;99.90;;;;;;5072818;28;20044;-59
2023/09/02 09:54:37;;;;;;;27.52;18.35;;;19.00;99.90;;;;;;5071734;28;20549;-58
2023/09/02 09:57:05;;;;;;;24.63;19.92;;;19.00;99.90;;;;;;5071620;28;20121;-60
2023/09/02 09:59:31;;;;;;;22.83;19.30;;;18.90;99.90;;;;;;5072554;28;20054;-59
2023/09/02 10:02:00;;;;;;;24.52;20.30;;;19.10;99.90;;;;;;5072431;28;20179;-58
2023/09/02 10:04:26;;;;;;;22.63;19.73;;;19.10;99.90;;;;;;5072714;28;20044;-56
2023/09/02 10:07:00;;;;;;;28.83;21.38;;;19.10;99.90;;;;;;5072404;28;20480;-53
2023/09/02 10:09:41;;;;;;;26.50;20.33;;;19.40;99.90;;;;;;5072190;28;20060;-58
2023/09/02 10:12:15;;;;;;;24.95;19.77;;;19.50;99.90;;;;;;5072595;28;20480;-57
2023/09/02 10:14:46;;;;;;;23.45;18.50;;;19.60;99.90;;;;;;5071346;28;20045;-53
2023/09/02 10:17:12;;;;;;;24.00;19.67;;;19.70;99.90;;;;;;5072277;28;20094;-57
2023/09/02 10:19:39;;;;;;;23.05;19.25;;;19.80;99.90;;;;;;5071990;28;20037;-59
2023/09/02 10:22:06;;;;;;;28.15;20.88;;;19.90;99.90;;;;;;5072203;28;20040;-57
2023/09/02 10:24:40;;;;;;;23.02;19.40;;;19.90;99.90;;;;;;5072398;28;20040;-60
2023/09/02 10:27:15;;;;;;;24.27;19.63;;;19.80;99.90;;;;;;5071531;28;20063;-56
2023/09/02 10:29:45;;;;;;;24.83;20.55;;;19.80;99.90;;;;;;5071204;28;20036;-61
2023/09/02 10:32:15;;;;;;;25.88;19.75;;;19.80;99.90;;;;;;5072023;28;20098;-60
2023/09/02 10:35:04;;;;;;;26.38;21.70;;;19.80;99.90;;;;;;5071083;28;20047;-61
2023/09/02 10:37:40;;;;;;;27.08;22.55;;;20.00;99.90;;;;;;5070993;28;20045;-56
2023/09/02 10:40:07;;;;;;;25.92;22.25;;;20.20;99.90;;;;;;5070159;28;20043;-63
2023/09/02 10:42:34;;;;;;;26.13;20.67;;;20.10;99.90;;;;;;5071610;28;20028;-59
2023/09/02 10:45:00;;;;;;;26.38;21.08;;;19.90;99.90;;;;;;5072042;28;20475;-57
2023/09/02 10:47:26;;;;;;;26.02;20.52;;;19.80;99.90;;;;;;5071635;28;20094;-57
2023/09/02 10:49:54;;;;;;;23.15;20.42;;;19.80;99.90;;;;;;5071870;28;20051;-58
2023/09/02 10:52:20;;;;;;;26.05;21.55;;;19.70;99.90;;;;;;5071787;28;20052;-61
2023/09/02 10:55:06;;;;;;;25.80;20.08;;;19.60;99.90;;;;;;5071948;28;20111;-54
2023/09/02 10:57:49;;;;;;;22.38;19.88;;;19.80;99.90;;;;;;5070393;28;20036;-57
2023/09/02 11:00:16;;;;;;;26.30;20.20;;;20.10;99.90;;;;;;5071179;28;20041;-61
2023/09/02 11:02:44;;;;;;;20.63;18.00;;;20.50;99.90;;;;;;5071494;28;20040;-57
2023/09/02 11:05:10;;;;;;;22.77;17.95;;;20.50;99.90;;;;;;5070602;28;20119;-58
2023/09/02 11:07:39;;;;;;;22.67;17.52;;;20.60;99.90;;;;;;5070282;28;20379;-59
2023/09/02 11:10:06;;;;;;;22.83;18.55;;;20.60;99.90;;;;;;5071491;28;20040;-57
2023/09/02 11:12:33;;;;;;;22.80;17.42;;;20.60;99.90;;;;;;5071340;28;20039;-60
2023/09/02 11:15:11;;;;;;;20.80;16.67;;;20.70;99.90;;;;;;5070321;28;20044;-61
2023/09/02 11:17:43;;;;;;;21.50;16.38;;;20.80;99.90;;;;;;5071024;28;20048;-63
2023/09/02 11:20:11;;;;;;;20.40;15.95;;;20.70;99.90;;;;;;5071463;28;20082;-60
2023/09/02 11:22:56;;;;;;;20.90;16.75;;;20.80;99.90;;;;;;5071021;28;20032;-57
2023/09/02 11:25:28;;;;;;;18.45;14.25;;;20.70;99.90;;;;;;5071765;28;20403;-57
2023/09/02 11:27:55;;;;;;;18.35;14.30;;;20.70;99.90;;;;;;5071093;28;20064;-61
2023/09/02 11:30:23;;;;;;;17.75;13.70;;;20.50;99.90;;;;;;5069836;28;20040;-58
2023/09/02 11:32:49;;;;;;;21.35;13.85;;;20.60;99.90;;;;;;5071003;28;20048;-57
2023/09/02 11:35:22;;;;;;;20.08;14.60;;;20.60;99.90;;;;;;5071472;28;20090;-58
2023/09/02 11:37:48;;;;;;;16.92;13.20;;;20.60;99.90;;;;;;5071569;28;20045;-59
2023/09/02 11:40:15;;;;;;;17.48;13.27;;;20.60;99.90;;;;;;5071263;28;20056;-57
2023/09/02 11:42:54;;;;;;;17.08;13.18;;;20.50;99.90;;;;;;5073569;28;20118;-58
2023/09/02 11:45:21;;;;;;;20.17;14.65;;;20.60;99.90;;;;;;5075172;28;20040;-56
2023/09/02 11:47:48;;;;;;;16.88;12.20;;;20.50;99.90;;;;;;5075362;28;20422;-57
2023/09/02 11:50:16;;;;;;;17.52;12.77;;;20.70;99.90;;;;;;5075451;28;20123;-58
2023/09/02 11:52:42;;;;;;;17.23;11.98;;;21.00;99.90;;;;;;5075330;28;20044;-60
2023/09/02 11:55:10;;;;;;;14.50;9.60;;;21.30;99.90;;;;;;5073619;28;20475;-57
2023/09/02 11:57:36;;;;;;;13.65;8.90;;;21.60;99.90;;;;;;5075480;28;20115;-56
2023/09/02 12:00:02;;;;;;;14.77;9.52;;;21.90;99.90;;;;;;5074735;28;20416;-60
2023/09/02 12:02:28;;;;;;;13.20;8.73;;;22.30;99.90;;;;;;5075185;28;20530;-60
2023/09/02 12:04:55;;;;;;;15.15;9.63;;;22.70;99.90;;;;;;5074916;28;20037;-59
2023/09/02 12:07:21;;;;;;;13.93;9.13;;;22.90;99.90;;;;;;5074655;28;20064;-62
2023/09/02 12:09:47;;;;;;;11.52;8.65;;;22.90;99.90;;;;;;5074660;28;20041;-60
2023/09/02 12:12:15;;;;;;;13.50;9.27;;;22.80;99.90;;;;;;5074750;28;20032;-56
2023/09/02 12:14:41;;;;;;;12.50;9.43;;;22.70;99.90;;;;;;5074815;28;20116;-57
2023/09/02 12:17:07;;;;;;;16.13;9.52;;;22.90;99.90;;;;;;5073219;28;20036;-59
2023/09/02 12:19:36;;;;;;;15.23;8.73;;;22.90;99.90;;;;;;5074230;28;20079;-58
2023/09/02 12:22:02;;;;;;;11.88;8.05;;;23.10;99.90;;;;;;5074704;28;20036;-58
2023/09/02 12:24:29;;;;;;;12.63;7.78;;;23.10;99.90;;;;;;5074504;28;20090;-60
2023/09/02 12:26:55;;;;;;;13.65;7.32;;;23.10;99.90;;;;;;5072858;28;20125;-58
2023/09/02 12:29:27;;;;;;;12.18;7.65;;;23.00;99.90;;;;;;5072944;28;20131;-57